Time;durP1;ratioP1;P1;durP2;ratioP2;P2;SDS_P1;SDS_P2;PMS_P1;PMS_P2;Temp;Humidity;BMP_temperature;BMP_pressure;BME280_temperature;BME280_humidity;BME280_pressure;Samples;Min_cycle;Max_cycle;Signal;HPM_P1;HPM_P2
2023/10/29 00:01:42;;;;;;;8.73;2.15;;;15.60;96.70;;;;;;5045928;28;20071;-77
2023/10/29 00:04:11;;;;;;;6.43;1.75;;;15.50;96.70;;;;;;5029496;28;20037;-76
2023/10/29 00:06:40;;;;;;;6.00;2.35;;;15.50;96.70;;;;;;5054418;28;20045;-77
2023/10/29 00:09:07;;;;;;;5.82;2.42;;;15.40;96.70;;;;;;5039400;28;20044;-77
2023/10/29 00:11:36;;;;;;;5.20;2.17;;;15.40;96.70;;;;;;5051473;28;20068;-76
2023/10/29 00:14:04;;;;;;;5.13;2.03;;;15.50;96.70;;;;;;5054246;28;20045;-78
2023/10/29 00:17:26;;;;;;;6.47;2.10;;;15.50;96.70;;;;;;5044814;28;20072;-76
2023/10/29 00:20:50;;;;;;;4.88;2.20;;;15.50;96.70;;;;;;5045552;28;20056;-76
2023/10/29 00:23:55;;;;;;;6.85;2.45;;;15.50;96.70;;;;;;5045329;28;20052;-76
2023/10/29 00:26:59;;;;;;;7.00;2.17;;;15.50;96.70;;;;;;5044786;28;20494;-77
2023/10/29 00:35:57;;;;;;;5.30;2.13;;;15.30;96.70;;;;;;5044598;28;20080;-76
2023/10/29 00:42:43;;;;;;;5.05;1.63;;;15.20;96.70;;;;;;5047421;28;20059;-76
2023/10/29 00:46:24;;;;;;;3.83;1.50;;;15.20;96.70;;;;;;5050979;28;20052;-77
2023/10/29 00:49:48;;;;;;;4.43;1.45;;;15.20;96.70;;;;;;5044576;28;20405;-77
2023/10/29 01:06:28;;;;;;;4.53;1.48;;;15.10;96.70;;;;;;5043143;28;20059;-77
2023/10/29 01:13:34;;;;;;;5.18;1.70;;;15.10;96.70;;;;;;5052501;28;20043;-77
2023/10/29 01:19:43;;;;;;;7.50;2.53;;;15.00;96.70;;;;;;5049313;28;20048;-77
2023/10/29 01:23:25;;;;;;;2.17;1.38;;;15.00;96.70;;;;;;5048998;28;20524;-77
2023/10/29 01:26:31;;;;;;;5.00;1.45;;;15.00;96.70;;;;;;5043752;28;20049;-76
2023/10/29 01:29:55;;;;;;;5.85;1.75;;;14.90;96.70;;;;;;5044952;28;20067;-76
2023/10/29 01:35:47;;;;;;;5.50;1.60;;;14.80;96.70;;;;;;5053235;28;20048;-76
2023/10/29 02:02:57;;;;;;;5.25;1.27;;;14.70;96.70;;;;;;5048594;28;20662;-77
2023/10/29 02:06:21;;;;;;;3.78;1.20;;;14.60;96.70;;;;;;5043197;28;20055;-77
2023/10/29 02:09:44;;;;;;;5.03;1.75;;;14.60;96.70;;;;;;5044011;28;20051;-76
2023/10/29 02:12:49;;;;;;;4.32;1.27;;;14.70;96.70;;;;;;5065292;28;20096;-76
2023/10/29 02:26:25;;;;;;;5.68;1.35;;;14.60;96.70;;;;;;5060896;28;20044;-74
2023/10/29 02:32:17;;;;;;;3.58;1.40;;;14.60;96.70;;;;;;5054625;28;20133;-77
2023/10/29 02:35:04;;;;;;;6.93;1.20;;;14.60;96.70;;;;;;5053970;28;20053;-77
2023/10/29 02:38:26;;;;;;;10.25;1.23;;;14.50;96.70;;;;;;5055231;28;20059;-76
2023/10/29 02:44:37;;;;;;;5.20;1.00;;;14.50;96.70;;;;;;5042680;28;20041;-76
2023/10/29 02:47:42;;;;;;;6.45;1.55;;;14.40;96.70;;;;;;5042533;28;20105;-76
2023/10/29 03:00:58;;;;;;;3.38;1.10;;;14.30;96.70;;;;;;5052689;28;20063;-76
2023/10/29 03:07:10;;;;;;;4.70;1.55;;;14.30;96.70;;;;;;5049596;28;20044;-76
2023/10/29 03:20:45;;;;;;;2.97;1.17;;;14.30;96.70;;;;;;5047076;28;20048;-76
2023/10/29 03:33:05;;;;;;;3.10;1.13;;;14.30;96.70;;;;;;5054137;28;20051;-77
2023/10/29 03:42:02;;;;;;;4.35;1.25;;;14.20;96.70;;;;;;5058372;28;20037;-77
2023/10/29 03:47:54;;;;;;;3.67;1.30;;;14.20;96.70;;;;;;5046613;28;20049;-76
2023/10/29 03:58:25;;;;;;;4.05;1.80;;;14.10;96.70;;;;;;5050396;28;20485;-77
2023/10/29 04:01:29;;;;;;;4.60;1.40;;;14.10;96.70;;;;;;5058682;28;20049;-77
2023/10/29 04:07:40;;;;;;;5.18;1.90;;;14.10;96.70;;;;;;5043317;28;20056;-77
2023/10/29 04:13:13;;;;;;;3.50;1.43;;;14.00;96.70;;;;;;5046495;28;20076;-76
2023/10/29 04:15:58;;;;;;;6.53;1.48;;;14.00;96.70;;;;;;5047509;28;20490;-76
2023/10/29 04:18:31;;;;;;;4.53;1.83;;;14.00;96.70;;;;;;5044660;28;20084;-76
2023/10/29 04:21:02;;;;;;;3.95;1.70;;;13.90;96.70;;;;;;5027375;28;20080;-78
2023/10/29 04:23:32;;;;;;;2.55;1.20;;;14.00;96.70;;;;;;5045687;28;20049;-77
2023/10/29 04:26:00;;;;;;;4.85;1.10;;;13.90;96.70;;;;;;5047409;28;20111;-76
2023/10/29 04:28:29;;;;;;;2.35;1.17;;;14.00;96.70;;;;;;5055282;28;20048;-77
2023/10/29 04:30:57;;;;;;;4.28;1.15;;;13.90;96.70;;;;;;5037829;28;20041;-78
2023/10/29 04:33:25;;;;;;;2.53;0.95;;;13.90;96.70;;;;;;5059080;28;20052;-77
2023/10/29 04:35:54;;;;;;;1.98;0.65;;;13.90;96.70;;;;;;5047308;28;20044;-77
2023/10/29 04:38:22;;;;;;;2.97;0.80;;;13.90;96.70;;;;;;5029062;28;20051;-77
2023/10/29 04:40:52;;;;;;;2.28;0.90;;;13.80;96.70;;;;;;5053655;28;20044;-78
2023/10/29 04:43:20;;;;;;;2.20;0.70;;;13.90;96.70;;;;;;5059775;28;20040;-78
2023/10/29 04:45:48;;;;;;;2.72;1.00;;;13.80;96.70;;;;;;5052449;28;20072;-76
2023/10/29 04:48:16;;;;;;;2.97;0.80;;;13.80;96.70;;;;;;5044047;28;20053;-76
2023/10/29 04:50:44;;;;;;;4.53;0.82;;;13.80;96.70;;;;;;5053352;28;20095;-77
2023/10/29 04:53:13;;;;;;;3.03;1.00;;;13.70;96.70;;;;;;5049143;28;20052;-77
2023/10/29 04:55:41;;;;;;;9.57;2.15;;;13.70;96.70;;;;;;5052957;28;20045;-77
2023/10/29 04:58:11;;;;;;;5.20;1.08;;;13.70;96.70;;;;;;5044509;28;20041;-76
2023/10/29 05:00:39;;;;;;;5.97;1.00;;;13.70;96.70;;;;;;5045634;28;20144;-76
2023/10/29 05:03:07;;;;;;;2.60;1.00;;;13.70;96.70;;;;;;5044014;28;20044;-76
2023/10/29 05:05:36;;;;;;;2.88;0.98;;;13.70;96.70;;;;;;5049592;28;20215;-77
2023/10/29 05:08:04;;;;;;;4.93;1.25;;;13.60;96.70;;;;;;5046286;28;20072;-76
2023/10/29 05:10:32;;;;;;;3.45;0.93;;;13.70;96.70;;;;;;5045924;28;20588;-76
2023/10/29 05:13:01;;;;;;;3.65;1.20;;;13.70;96.70;;;;;;5043821;28;20045;-76
2023/10/29 05:15:31;;;;;;;4.40;0.90;;;13.70;96.70;;;;;;5048645;28;20084;-77
2023/10/29 05:17:59;;;;;;;4.55;1.13;;;13.80;96.70;;;;;;5046498;28;20044;-76
2023/10/29 05:20:27;;;;;;;3.33;1.10;;;13.80;96.70;;;;;;5046560;28;20409;-77
2023/10/29 05:22:55;;;;;;;3.38;0.80;;;13.90;96.70;;;;;;5063046;28;20063;-77
2023/10/29 05:25:23;;;;;;;2.20;0.88;;;14.00;96.70;;;;;;5046050;28;20056;-76
2023/10/29 05:27:52;;;;;;;3.00;0.82;;;14.00;96.70;;;;;;5027153;28;20497;-77
2023/10/29 05:30:21;;;;;;;3.30;1.08;;;14.00;96.70;;;;;;5043713;28;20052;-77
2023/10/29 05:32:50;;;;;;;4.70;1.10;;;14.10;96.70;;;;;;5046907;28;20040;-78
2023/10/29 05:35:19;;;;;;;3.70;1.10;;;14.10;96.70;;;;;;5058664;28;20094;-77
2023/10/29 05:37:47;;;;;;;4.72;0.95;;;14.20;96.70;;;;;;5058623;28;20072;-76
2023/10/29 05:40:15;;;;;;;2.97;0.90;;;14.20;96.70;;;;;;5048420;28;20065;-77
2023/10/29 05:42:44;;;;;;;11.93;5.78;;;14.10;96.70;;;;;;5046411;28;20518;-77
2023/10/29 05:45:12;;;;;;;29.85;16.55;;;14.10;96.70;;;;;;5039730;28;20052;-76
2023/10/29 05:47:40;;;;;;;40.30;22.77;;;14.10;96.70;;;;;;5044910;28;20047;-76
2023/10/29 05:50:10;;;;;;;43.33;27.30;;;14.10;96.70;;;;;;5047679;28;20048;-77
2023/10/29 05:52:39;;;;;;;46.35;28.55;;;14.20;96.70;;;;;;5055638;28;20075;-77
2023/10/29 05:55:07;;;;;;;50.78;32.15;;;14.20;96.70;;;;;;5051110;28;20080;-77
2023/10/29 05:57:36;;;;;;;47.47;29.48;;;14.10;96.70;;;;;;5043032;28;20113;-77
2023/10/29 06:00:05;;;;;;;41.47;27.15;;;14.20;96.70;;;;;;5045951;28;20072;-78
2023/10/29 06:02:38;;;;;;;41.05;25.40;;;14.20;96.70;;;;;;5058134;28;20044;-77
2023/10/29 06:05:07;;;;;;;38.15;22.60;;;14.30;96.70;;;;;;5043217;28;20126;-77
2023/10/29 06:07:41;;;;;;;32.95;20.10;;;14.30;96.70;;;;;;5044558;28;20068;-77
2023/10/29 06:10:11;;;;;;;35.75;20.00;;;14.40;96.70;;;;;;5046349;28;20075;-78
2023/10/29 06:12:40;;;;;;;31.90;18.88;;;14.40;96.70;;;;;;5051317;28;20076;-77
2023/10/29 06:15:09;;;;;;;27.15;16.42;;;14.40;96.70;;;;;;5055080;28;20148;-77
2023/10/29 06:17:38;;;;;;;24.48;14.88;;;14.40;96.70;;;;;;5043873;28;20084;-77
2023/10/29 06:20:09;;;;;;;22.08;11.77;;;14.50;96.70;;;;;;5042662;28;20076;-77
2023/10/29 06:22:38;;;;;;;20.45;10.88;;;14.60;96.70;;;;;;5043162;28;20053;-77
2023/10/29 06:25:08;;;;;;;17.98;8.95;;;14.60;96.70;;;;;;5019054;28;20052;-77
2023/10/29 06:27:37;;;;;;;12.43;7.55;;;14.70;96.70;;;;;;5044758;28;20053;-77
2023/10/29 06:30:06;;;;;;;15.05;6.72;;;14.70;96.70;;;;;;5049074;28;20040;-77
2023/10/29 06:32:34;;;;;;;10.48;6.35;;;14.80;96.70;;;;;;5060869;28;20418;-77
2023/10/29 06:35:04;;;;;;;13.25;7.05;;;14.80;96.70;;;;;;5057261;28;20087;-77
2023/10/29 06:37:32;;;;;;;14.98;7.13;;;14.80;96.70;;;;;;5047283;28;20282;-77
2023/10/29 06:40:03;;;;;;;12.48;7.15;;;14.90;96.70;;;;;;5029827;28;20681;-77
2023/10/29 06:42:31;;;;;;;14.70;7.60;;;15.00;96.70;;;;;;5053662;28;20045;-78
2023/10/29 06:44:59;;;;;;;22.10;9.98;;;15.00;96.70;;;;;;5047646;28;20045;-77
2023/10/29 06:47:27;;;;;;;17.50;8.75;;;15.10;96.70;;;;;;5056405;28;20041;-77
2023/10/29 06:49:55;;;;;;;12.85;6.55;;;15.10;96.70;;;;;;5040129;28;20053;-77
2023/10/29 06:52:23;;;;;;;7.75;4.70;;;15.20;96.70;;;;;;5032116;28;20071;-78
2023/10/29 06:54:52;;;;;;;5.63;2.35;;;15.20;96.70;;;;;;5056830;28;20094;-78
2023/10/29 06:57:21;;;;;;;8.05;2.47;;;15.20;96.70;;;;;;5030514;28;20099;-76
2023/10/29 06:59:50;;;;;;;4.32;2.10;;;15.20;96.70;;;;;;5046289;28;20065;-77
2023/10/29 07:02:18;;;;;;;3.47;1.90;;;15.20;96.70;;;;;;5048101;28;20812;-76
2023/10/29 07:04:46;;;;;;;4.70;2.35;;;15.30;96.70;;;;;;5049889;28;20476;-78
2023/10/29 07:07:15;;;;;;;3.92;1.50;;;15.30;96.70;;;;;;5061023;28;20037;-76
2023/10/29 07:09:43;;;;;;;5.65;1.95;;;15.40;96.70;;;;;;5055162;28;20061;-78
2023/10/29 07:12:11;;;;;;;3.75;1.20;;;15.40;96.70;;;;;;5046737;28;20072;-78
2023/10/29 07:14:41;;;;;;;2.78;1.45;;;15.40;96.70;;;;;;5048098;28;20510;-77
2023/10/29 07:17:09;;;;;;;9.40;2.28;;;15.50;96.70;;;;;;5045593;28;20560;-77
2023/10/29 07:19:38;;;;;;;8.90;4.03;;;15.60;96.70;;;;;;5063291;28;20139;-76
2023/10/29 07:22:06;;;;;;;10.18;5.75;;;15.60;96.70;;;;;;5059704;28;20045;-77
2023/10/29 07:24:35;;;;;;;8.98;5.07;;;15.70;96.70;;;;;;5053295;28;20094;-77
2023/10/29 07:27:04;;;;;;;11.82;4.85;;;15.70;96.70;;;;;;5039088;28;20155;-78
2023/10/29 07:29:32;;;;;;;8.85;4.55;;;15.70;96.70;;;;;;5062165;28;20050;-77
2023/10/29 07:32:03;;;;;;;10.57;4.28;;;15.80;96.70;;;;;;5045626;28;20051;-77
2023/10/29 07:34:31;;;;;;;8.63;4.22;;;15.90;96.70;;;;;;5047546;28;20413;-80
2023/10/29 07:36:59;;;;;;;8.60;4.18;;;16.00;96.70;;;;;;5028575;28;20103;-79
2023/10/29 07:39:28;;;;;;;10.27;5.03;;;16.10;96.70;;;;;;5048641;28;20040;-80
2023/10/29 07:41:57;;;;;;;10.40;5.00;;;16.10;96.70;;;;;;5048431;28;20492;-79
2023/10/29 07:44:25;;;;;;;8.07;4.35;;;16.10;96.70;;;;;;5048215;28;20101;-80
2023/10/29 07:46:53;;;;;;;8.65;5.00;;;16.20;96.70;;;;;;5047094;28;20037;-80
2023/10/29 07:49:24;;;;;;;7.90;4.72;;;16.20;96.70;;;;;;5045223;28;20406;-79
2023/10/29 07:51:52;;;;;;;8.80;4.55;;;16.20;96.70;;;;;;5028550;28;20048;-80
2023/10/29 07:54:20;;;;;;;6.47;3.65;;;16.30;96.70;;;;;;5032818;28;20173;-79
2023/10/29 07:56:49;;;;;;;5.47;3.35;;;16.30;96.70;;;;;;5051930;28;20052;-78
2023/10/29 07:59:17;;;;;;;9.77;4.18;;;16.50;96.70;;;;;;5045521;28;20041;-79
2023/10/29 08:01:45;;;;;;;6.05;3.60;;;16.60;96.70;;;;;;5045981;28;20049;-80
2023/10/29 08:04:13;;;;;;;6.22;3.40;;;16.70;96.70;;;;;;5046640;28;20040;-80
2023/10/29 08:06:44;;;;;;;9.38;3.08;;;16.80;96.70;;;;;;5036765;28;20053;-79
2023/10/29 08:09:12;;;;;;;6.80;2.65;;;16.90;96.70;;;;;;5046195;28;20128;-79
2023/10/29 08:11:43;;;;;;;7.82;3.08;;;17.10;96.70;;;;;;5046444;28;20049;-78
2023/10/29 08:14:12;;;;;;;6.22;2.45;;;17.10;96.70;;;;;;5051364;28;20040;-80
2023/10/29 08:16:41;;;;;;;5.80;2.50;;;17.20;96.70;;;;;;5046453;28;20061;-81
2023/10/29 08:19:09;;;;;;;4.65;2.70;;;17.30;96.70;;;;;;5064369;28;20045;-80
2023/10/29 08:21:37;;;;;;;4.70;2.58;;;17.40;96.70;;;;;;5046138;28;20486;-80
2023/10/29 08:24:08;;;;;;;7.30;2.83;;;17.40;96.70;;;;;;5032113;28;20045;-80
2023/10/29 08:26:36;;;;;;;8.68;2.90;;;17.50;96.70;;;;;;5055210;28;20131;-79
2023/10/29 08:29:04;;;;;;;7.82;2.30;;;17.70;96.70;;;;;;5054312;28;20048;-79
2023/10/29 08:31:32;;;;;;;5.18;2.50;;;17.80;96.70;;;;;;5046099;28;20060;-77
2023/10/29 08:34:00;;;;;;;6.20;2.00;;;18.10;96.70;;;;;;5046755;28;20043;-78
2023/10/29 08:36:29;;;;;;;5.00;1.80;;;18.20;96.70;;;;;;5062019;28;20049;-78
2023/10/29 08:38:58;;;;;;;7.15;2.17;;;18.30;96.70;;;;;;5045912;28;20037;-77
2023/10/29 08:41:27;;;;;;;6.30;1.95;;;18.40;96.70;;;;;;5061078;28;20044;-82
2023/10/29 08:43:56;;;;;;;6.30;2.30;;;18.60;96.70;;;;;;5046135;28;20558;-81
2023/10/29 08:46:24;;;;;;;7.78;2.83;;;18.70;96.70;;;;;;5048716;28;20072;-81
2023/10/29 08:48:52;;;;;;;7.78;2.17;;;18.90;96.70;;;;;;5026041;28;20107;-81
2023/10/29 08:51:20;;;;;;;5.32;2.30;;;18.90;96.70;;;;;;5047953;28;20041;-82
2023/10/29 08:53:49;;;;;;;5.85;2.00;;;18.90;96.70;;;;;;5047088;28;20102;-80
2023/10/29 08:56:17;;;;;;;7.35;2.20;;;19.10;96.70;;;;;;5044441;28;20052;-77
2023/10/29 08:58:46;;;;;;;7.18;1.92;;;19.20;96.70;;;;;;5044793;28;20103;-77
2023/10/29 09:01:15;;;;;;;5.78;2.20;;;19.20;96.70;;;;;;5045876;28;20096;-77
2023/10/29 09:03:43;;;;;;;6.90;3.05;;;19.40;96.70;;;;;;5042535;28;20052;-77
2023/10/29 09:06:12;;;;;;;6.85;2.42;;;19.50;96.70;;;;;;5040250;28;20376;-77
2023/10/29 09:08:41;;;;;;;5.43;2.30;;;19.50;96.70;;;;;;5044853;28;20054;-77
2023/10/29 09:11:13;;;;;;;5.72;2.40;;;19.60;96.70;;;;;;5043141;28;20048;-78
2023/10/29 09:13:41;;;;;;;9.50;2.45;;;19.70;96.70;;;;;;5045421;28;20045;-79
2023/10/29 09:16:11;;;;;;;8.23;2.40;;;19.70;96.70;;;;;;5043465;28;20072;-78
2023/10/29 09:18:40;;;;;;;9.43;2.75;;;19.80;96.70;;;;;;5043010;28;20132;-77
2023/10/29 09:21:08;;;;;;;5.38;2.42;;;19.90;96.70;;;;;;5053782;28;20048;-77
2023/10/29 09:23:36;;;;;;;5.72;2.25;;;20.00;96.70;;;;;;5061619;28;20036;-76
2023/10/29 09:26:04;;;;;;;8.63;3.75;;;20.10;96.70;;;;;;5049729;28;20045;-78
2023/10/29 09:28:32;;;;;;;7.68;2.35;;;20.20;96.70;;;;;;5026882;28;20049;-79
2023/10/29 09:31:00;;;;;;;6.57;2.40;;;20.30;96.70;;;;;;5043231;28;20111;-79
2023/10/29 09:33:30;;;;;;;6.75;2.42;;;20.30;96.70;;;;;;5029102;28;20410;-77
2023/10/29 09:36:00;;;;;;;5.32;2.35;;;20.20;96.70;;;;;;5046536;28;20379;-78
2023/10/29 09:38:28;;;;;;;5.80;2.33;;;20.20;96.70;;;;;;5029005;28;20056;-77
2023/10/29 09:40:56;;;;;;;5.90;1.95;;;20.20;96.70;;;;;;5042725;28;20151;-77
2023/10/29 09:43:28;;;;;;;6.53;1.70;;;20.20;96.70;;;;;;5045160;28;20136;-77
2023/10/29 09:45:58;;;;;;;4.53;2.03;;;20.40;96.70;;;;;;5043360;28;20576;-77
2023/10/29 09:48:26;;;;;;;6.13;1.55;;;20.40;96.70;;;;;;5045093;28;20049;-77
2023/10/29 09:50:55;;;;;;;4.35;1.67;;;20.50;96.70;;;;;;5048546;28;20125;-76
2023/10/29 09:53:24;;;;;;;6.93;2.40;;;20.40;96.70;;;;;;5045916;28;20578;-77
2023/10/29 09:55:54;;;;;;;6.93;2.47;;;20.40;96.70;;;;;;5044591;28;20463;-77
2023/10/29 09:58:23;;;;;;;10.90;2.58;;;20.50;96.70;;;;;;5043995;28;20070;-77
2023/10/29 10:00:52;;;;;;;4.82;2.08;;;20.50;96.70;;;;;;5067587;28;20040;-77
2023/10/29 10:03:20;;;;;;;5.88;1.88;;;20.70;96.70;;;;;;5031268;28;20075;-77
2023/10/29 10:05:50;;;;;;;7.70;2.58;;;20.80;96.70;;;;;;5025786;28;20432;-77
2023/10/29 10:08:24;;;;;;;5.18;2.38;;;20.80;96.70;;;;;;5044623;28;20037;-77
2023/10/29 10:10:53;;;;;;;5.80;2.38;;;20.80;96.70;;;;;;5044328;28;20041;-77
2023/10/29 10:13:36;;;;;;;4.63;2.05;;;20.80;96.70;;;;;;5044409;28;20566;-77
2023/10/29 10:16:09;;;;;;;5.68;2.40;;;20.90;96.70;;;;;;5043533;28;20052;-76
2023/10/29 10:18:50;;;;;;;5.97;2.05;;;21.00;96.70;;;;;;5040674;28;20103;-77
2023/10/29 10:21:20;;;;;;;7.68;1.92;;;21.00;96.70;;;;;;5045525;28;20041;-77
2023/10/29 10:23:51;;;;;;;5.47;2.03;;;21.00;96.70;;;;;;5044799;28;20056;-78
2023/10/29 10:26:27;;;;;;;8.20;2.50;;;21.10;96.70;;;;;;5040827;28;20409;-78
2023/10/29 10:28:57;;;;;;;6.05;2.45;;;21.00;96.70;;;;;;5041846;28;20072;-78
2023/10/29 10:31:29;;;;;;;9.82;2.58;;;21.00;96.70;;;;;;5044057;28;20098;-86
2023/10/29 10:34:13;;;;;;;7.55;2.38;;;20.90;96.70;;;;;;5048536;28;20513;-79
2023/10/29 10:36:42;;;;;;;6.13;2.28;;;21.00;96.70;;;;;;5041925;28;20077;-79
2023/10/29 10:39:12;;;;;;;7.50;2.35;;;21.20;96.70;;;;;;5042211;28;20049;-80
2023/10/29 10:41:42;;;;;;;8.80;2.55;;;21.30;96.70;;;;;;5026416;28;20397;-80
2023/10/29 10:44:11;;;;;;;7.82;3.00;;;21.50;96.70;;;;;;5034705;28;20056;-83
2023/10/29 10:46:46;;;;;;;6.07;1.77;;;21.50;96.70;;;;;;5046341;28;20501;-80
2023/10/29 10:49:15;;;;;;;4.70;1.63;;;21.60;96.70;;;;;;5042307;28;20059;-81
2023/10/29 10:51:44;;;;;;;3.97;1.23;;;21.70;96.70;;;;;;5051709;28;20139;-78
2023/10/29 10:54:19;;;;;;;4.70;1.48;;;21.80;96.70;;;;;;5052842;28;20561;-77
2023/10/29 10:56:49;;;;;;;7.80;2.55;;;21.90;96.70;;;;;;5062415;28;20720;-77
2023/10/29 10:59:18;;;;;;;6.70;2.40;;;22.10;96.70;;;;;;5061153;28;20494;-77
2023/10/29 11:01:48;;;;;;;6.85;2.97;;;22.20;96.70;;;;;;5049627;28;20548;-78
2023/10/29 11:04:18;;;;;;;7.43;2.67;;;22.20;96.70;;;;;;5042319;28;20049;-77
2023/10/29 11:06:48;;;;;;;7.25;2.42;;;22.30;96.70;;;;;;5041170;28;20191;-76
2023/10/29 11:09:19;;;;;;;6.13;2.72;;;22.40;96.70;;;;;;5043828;28;20049;-77
2023/10/29 11:11:50;;;;;;;7.03;2.58;;;22.60;96.70;;;;;;5042479;28;20064;-77
2023/10/29 11:14:19;;;;;;;7.35;2.90;;;22.80;96.70;;;;;;5045856;28;20064;-77
2023/10/29 11:16:49;;;;;;;6.10;1.65;;;23.10;96.70;;;;;;5048593;28;20057;-77
2023/10/29 11:19:41;;;;;;;3.00;1.02;;;23.30;96.70;;;;;;5050769;28;20477;-76
2023/10/29 11:22:20;;;;;;;3.78;1.13;;;23.60;96.70;;;;;;5065295;28;20040;-77
2023/10/29 11:25:36;;;;;;;4.38;0.80;;;23.60;96.70;;;;;;5063422;28;20045;-77
2023/10/29 11:28:06;;;;;;;2.60;0.70;;;23.70;96.70;;;;;;5047856;28;20095;-77
2023/10/29 11:30:34;;;;;;;4.53;0.93;;;23.70;96.70;;;;;;5058118;28;20060;-77
2023/10/29 11:33:17;;;;;;;2.92;0.80;;;24.00;96.70;;;;;;5059852;28;20494;-77
2023/10/29 11:35:45;;;;;;;4.20;0.75;;;24.10;96.70;;;;;;5050002;28;20049;-77
2023/10/29 11:38:29;;;;;;;6.68;1.48;;;24.20;96.70;;;;;;5038019;28;20564;-76
2023/10/29 11:40:59;;;;;;;1.80;0.75;;;24.30;96.70;;;;;;5061130;28;20407;-77
2023/10/29 11:43:29;;;;;;;2.58;0.90;;;24.30;96.70;;;;;;5066886;28;20118;-78
2023/10/29 11:45:58;;;;;;;18.60;10.60;;;24.20;96.70;;;;;;5053617;28;20044;-79
2023/10/29 11:48:29;;;;;;;6.47;4.32;;;24.20;96.70;;;;;;5047428;28;20068;-78
2023/10/29 11:51:25;;;;;;;6.60;2.33;;;24.30;96.70;;;;;;5041360;28;20057;-78
2023/10/29 11:53:53;;;;;;;6.00;2.80;;;24.20;96.70;;;;;;5031250;28;20709;-78
2023/10/29 11:56:43;;;;;;;4.63;2.10;;;24.10;96.70;;;;;;5066445;28;20118;-78
2023/10/29 11:59:13;;;;;;;6.22;2.65;;;24.10;96.70;;;;;;5055263;28;20053;-78
2023/10/29 12:01:42;;;;;;;7.35;4.57;;;24.20;96.70;;;;;;5065860;28;20115;-77
2023/10/29 12:04:11;;;;;;;23.40;16.35;;;24.20;96.70;;;;;;5048746;28;20502;-78
2023/10/29 12:06:42;;;;;;;14.65;6.60;;;24.10;96.70;;;;;;5045233;28;20175;-78
2023/10/29 12:09:18;;;;;;;12.63;8.32;;;24.00;96.70;;;;;;5045754;28;20124;-78
2023/10/29 12:11:48;;;;;;;14.60;10.07;;;23.90;96.70;;;;;;5045663;28;20152;-78
2023/10/29 12:14:39;;;;;;;10.60;8.13;;;23.80;96.70;;;;;;5049277;28;20139;-77
2023/10/29 12:17:08;;;;;;;8.25;6.43;;;23.80;96.70;;;;;;5066053;28;20472;-77
2023/10/29 12:19:36;;;;;;;7.00;3.90;;;23.80;96.70;;;;;;5056555;28;20552;-78
2023/10/29 12:22:14;;;;;;;5.70;2.92;;;23.80;96.70;;;;;;5064652;28;21516;-77
2023/10/29 12:24:43;;;;;;;5.38;1.40;;;23.80;96.70;;;;;;5065811;28;20048;-78
2023/10/29 12:27:11;;;;;;;5.32;1.63;;;23.70;96.70;;;;;;5059992;28;20574;-78
2023/10/29 12:29:41;;;;;;;3.15;1.00;;;23.60;96.70;;;;;;5059013;28;20155;-79
2023/10/29 12:32:16;;;;;;;3.55;0.93;;;23.60;96.70;;;;;;5063439;28;20567;-78
2023/10/29 12:34:48;;;;;;;3.65;0.88;;;23.50;96.70;;;;;;5050255;28;20045;-77
2023/10/29 12:37:24;;;;;;;6.35;1.17;;;23.50;96.70;;;;;;5048203;28;20090;-77
2023/10/29 12:39:55;;;;;;;4.93;1.10;;;23.50;96.70;;;;;;5059366;28;20049;-78
2023/10/29 12:42:49;;;;;;;3.10;0.63;;;23.50;96.70;;;;;;5052076;28;20048;-77
2023/10/29 12:45:24;;;;;;;3.05;0.43;;;23.50;96.70;;;;;;5054349;28;20075;-78
2023/10/29 12:48:08;;;;;;;2.45;0.63;;;23.40;96.70;;;;;;5064244;28;20086;-77
2023/10/29 12:50:47;;;;;;;6.50;1.15;;;23.40;96.70;;;;;;5053446;28;20097;-77
2023/10/29 12:53:23;;;;;;;4.28;0.80;;;23.50;96.70;;;;;;5054057;28;20049;-77
2023/10/29 12:55:51;;;;;;;3.83;0.53;;;23.50;96.70;;;;;;5060732;28;20048;-78
2023/10/29 12:58:20;;;;;;;3.33;0.85;;;23.60;96.70;;;;;;5065242;28;20063;-78
2023/10/29 13:00:51;;;;;;;3.08;0.85;;;23.70;96.70;;;;;;5050257;28;20052;-77
2023/10/29 13:03:34;;;;;;;3.50;0.80;;;23.70;96.70;;;;;;5039418;28;20044;-78
2023/10/29 13:06:03;;;;;;;4.07;1.10;;;23.70;96.70;;;;;;5059023;28;20087;-78
2023/10/29 13:08:32;;;;;;;4.25;0.82;;;23.70;96.70;;;;;;5063625;28;20720;-78
2023/10/29 13:11:02;;;;;;;6.45;0.80;;;23.70;96.70;;;;;;5046986;28;20056;-78
2023/10/29 13:13:31;;;;;;;4.30;0.90;;;23.80;96.70;;;;;;5043762;28;20056;-77
2023/10/29 13:16:05;;;;;;;5.45;1.00;;;23.80;96.70;;;;;;5030897;28;20063;-78
2023/10/29 13:18:33;;;;;;;3.20;0.90;;;23.80;96.70;;;;;;5044091;28;20148;-77
2023/10/29 13:21:02;;;;;;;4.10;0.70;;;23.70;96.70;;;;;;5043710;28;20044;-78
2023/10/29 13:23:30;;;;;;;2.03;0.85;;;23.60;96.70;;;;;;5045620;28;20052;-78
2023/10/29 13:25:58;;;;;;;2.97;0.60;;;23.50;96.70;;;;;;5053237;28;20056;-77
2023/10/29 13:28:26;;;;;;;3.38;0.75;;;23.60;96.70;;;;;;5046263;28;20075;-78
2023/10/29 13:30:57;;;;;;;4.90;0.90;;;23.60;96.70;;;;;;5054316;28;20461;-78
2023/10/29 13:33:26;;;;;;;4.55;1.00;;;23.70;96.70;;;;;;5060060;28;20062;-77
2023/10/29 13:35:54;;;;;;;2.70;0.80;;;23.80;96.70;;;;;;5039039;28;20045;-78
2023/10/29 13:38:24;;;;;;;3.33;0.98;;;23.90;96.70;;;;;;5055996;28;20066;-78
2023/10/29 13:40:52;;;;;;;4.18;0.90;;;23.90;96.70;;;;;;5052132;28;20407;-78
2023/10/29 13:43:20;;;;;;;4.00;0.40;;;23.70;96.70;;;;;;5048463;28;20056;-77
2023/10/29 13:45:58;;;;;;;6.97;0.95;;;23.60;96.70;;;;;;5044614;28;20465;-78
2023/10/29 13:48:28;;;;;;;4.35;0.70;;;23.60;96.70;;;;;;5045010;28;20075;-78
2023/10/29 13:51:01;;;;;;;3.05;0.70;;;23.50;96.70;;;;;;5044411;28;20044;-78
2023/10/29 13:53:29;;;;;;;3.25;0.63;;;23.50;96.70;;;;;;5035027;28;20434;-78
2023/10/29 13:56:05;;;;;;;4.43;0.88;;;23.60;96.70;;;;;;5043820;28;20037;-77
2023/10/29 13:58:33;;;;;;;4.78;0.70;;;23.60;96.70;;;;;;5043184;28;20045;-78
2023/10/29 14:01:01;;;;;;;3.10;0.60;;;23.50;96.70;;;;;;5043400;28;20502;-78
2023/10/29 14:03:31;;;;;;;4.88;0.57;;;23.50;96.70;;;;;;5043123;28;20067;-77
2023/10/29 14:06:04;;;;;;;2.40;0.50;;;23.40;96.70;;;;;;5046135;28;20131;-78
2023/10/29 14:08:32;;;;;;;4.72;0.93;;;23.40;96.70;;;;;;5064365;28;20123;-78
2023/10/29 14:11:00;;;;;;;5.05;1.05;;;23.30;96.70;;;;;;5053778;28;20055;-78
2023/10/29 14:13:53;;;;;;;4.35;0.40;;;23.30;96.70;;;;;;5064093;28;20097;-77
2023/10/29 14:16:34;;;;;;;2.40;0.50;;;23.30;96.70;;;;;;4995454;28;20064;-78
2023/10/29 14:19:05;;;;;;;7.38;1.30;;;23.30;96.70;;;;;;5043002;28;20084;-77
2023/10/29 14:21:33;;;;;;;5.78;1.35;;;23.40;96.70;;;;;;5044858;28;20045;-78
2023/10/29 14:24:07;;;;;;;4.15;0.60;;;23.50;96.70;;;;;;5044623;28;20110;-77
2023/10/29 14:26:36;;;;;;;3.22;0.85;;;23.50;96.70;;;;;;5027981;28;20466;-77
2023/10/29 14:29:04;;;;;;;3.60;0.63;;;23.40;96.70;;;;;;5046276;28;20048;-77
2023/10/29 14:31:35;;;;;;;2.40;0.35;;;23.40;96.70;;;;;;5045863;28;20055;-78
2023/10/29 14:34:05;;;;;;;3.78;0.60;;;23.40;96.70;;;;;;5060077;28;20549;-78
2023/10/29 14:36:34;;;;;;;2.08;0.70;;;23.30;96.70;;;;;;5060159;28;20045;-77
2023/10/29 14:39:02;;;;;;;4.18;0.60;;;23.20;96.70;;;;;;5062403;28;20043;-77
2023/10/29 14:41:30;;;;;;;4.55;0.75;;;23.10;96.70;;;;;;5044651;28;20045;-78
2023/10/29 14:43:58;;;;;;;2.33;0.60;;;23.00;96.70;;;;;;5049086;28;20067;-77
2023/10/29 14:46:26;;;;;;;2.47;0.57;;;22.90;96.70;;;;;;5063076;28;20140;-77
2023/10/29 14:48:54;;;;;;;2.95;0.50;;;22.90;96.70;;;;;;5062144;28;20110;-77
2023/10/29 14:51:23;;;;;;;2.78;0.70;;;22.80;96.70;;;;;;5045482;28;20041;-77
2023/10/29 14:53:51;;;;;;;2.17;0.50;;;22.80;96.70;;;;;;5046772;28;20045;-78
2023/10/29 14:56:21;;;;;;;5.00;0.50;;;22.80;96.70;;;;;;5057987;28;20054;-77
2023/10/29 14:58:49;;;;;;;4.30;0.82;;;22.80;96.70;;;;;;5061335;28;20044;-77
2023/10/29 15:01:17;;;;;;;4.63;0.70;;;22.70;96.70;;;;;;5060807;28;20052;-78
2023/10/29 15:03:45;;;;;;;3.03;0.70;;;22.70;96.70;;;;;;5046494;28;20076;-78
2023/10/29 15:06:13;;;;;;;3.53;0.40;;;22.70;96.70;;;;;;5065545;28;20041;-77
2023/10/29 15:08:43;;;;;;;3.70;0.70;;;22.60;96.70;;;;;;5067027;28;20047;-78
2023/10/29 15:11:11;;;;;;;3.88;0.77;;;22.60;96.70;;;;;;5048866;28;20699;-78
2023/10/29 15:13:46;;;;;;;4.68;0.55;;;22.50;96.70;;;;;;5059498;28;20123;-77
2023/10/29 15:16:15;;;;;;;4.32;0.70;;;22.50;96.70;;;;;;5031938;28;20427;-78
2023/10/29 15:18:43;;;;;;;3.53;0.70;;;22.50;96.70;;;;;;5030149;28;20076;-78
2023/10/29 15:21:16;;;;;;;2.83;0.70;;;22.40;96.70;;;;;;5062941;28;20041;-77
2023/10/29 15:23:46;;;;;;;4.45;0.60;;;22.40;96.70;;;;;;5064518;28;20504;-78
2023/10/29 15:26:16;;;;;;;2.83;0.65;;;22.40;96.70;;;;;;5046549;28;20103;-78
2023/10/29 15:28:44;;;;;;;3.88;1.88;;;22.30;96.70;;;;;;5046339;28;20155;-77
2023/10/29 15:31:12;;;;;;;6.00;1.88;;;22.20;96.70;;;;;;5048015;28;20072;-78
2023/10/29 15:33:40;;;;;;;7.13;2.90;;;22.10;96.70;;;;;;5026378;28;20049;-78